Time;durP1;ratioP1;P1;durP2;ratioP2;P2;SDS_P1;SDS_P2;PMS_P1;PMS_P2;Temp;Humidity;BMP_temperature;BMP_pressure;BME280_temperature;BME280_humidity;BME280_pressure;Samples;Min_cycle;Max_cycle;Signal;HPM_P1;HPM_P2
2021/12/07 00:00:28;;;;;;;17.42;3.97;;;6.20;93.90;;;;;;5039769;28;20029;-72
2021/12/07 00:02:54;;;;;;;13.20;3.60;;;6.30;94.10;;;;;;5039886;28;20029;-72
2021/12/07 00:05:20;;;;;;;24.70;3.92;;;6.30;94.10;;;;;;5039936;28;20029;-72
2021/12/07 00:07:46;;;;;;;27.08;4.25;;;6.20;94.00;;;;;;5039646;28;20024;-72
2021/12/07 00:10:13;;;;;;;14.75;3.67;;;6.30;94.00;;;;;;5039496;28;20057;-72
2021/12/07 00:12:42;;;;;;;13.70;3.55;;;6.30;94.10;;;;;;5039303;28;20060;-72
2021/12/07 00:15:11;;;;;;;14.32;3.20;;;6.30;94.10;;;;;;5039538;28;20491;-72
2021/12/07 00:17:36;;;;;;;17.08;3.13;;;6.30;94.10;;;;;;5038409;28;20057;-72
2021/12/07 00:20:16;;;;;;;18.95;4.00;;;6.30;94.20;;;;;;5037860;28;20036;-72
2021/12/07 00:22:43;;;;;;;14.98;3.17;;;6.30;94.20;;;;;;5038341;28;20388;-72
2021/12/07 00:25:10;;;;;;;14.05;2.75;;;6.20;94.20;;;;;;5039032;28;20477;-72
2021/12/07 00:27:36;;;;;;;15.82;3.05;;;6.20;94.10;;;;;;5039168;28;20025;-72
2021/12/07 00:30:06;;;;;;;24.60;3.78;;;6.20;94.10;;;;;;5039110;28;20021;-72
2021/12/07 00:32:37;;;;;;;12.30;3.33;;;6.20;94.10;;;;;;5039185;28;20021;-72
2021/12/07 00:37:38;;;;;;;18.80;4.22;;;6.10;94.20;;;;;;5038615;28;20044;-72
2021/12/07 00:40:07;;;;;;;12.55;3.50;;;6.10;94.10;;;;;;5039013;28;20025;-72
2021/12/07 00:42:33;;;;;;;15.48;2.90;;;6.10;94.20;;;;;;5038633;28;20048;-72
2021/12/07 00:44:59;;;;;;;17.52;3.42;;;6.10;94.20;;;;;;5038639;28;20033;-72
2021/12/07 00:47:26;;;;;;;16.27;3.88;;;6.00;94.20;;;;;;5039103;28;20022;-72
2021/12/07 00:49:52;;;;;;;19.58;4.38;;;6.00;94.20;;;;;;5034179;28;20082;-72
2021/12/07 00:52:17;;;;;;;13.18;4.03;;;6.00;94.30;;;;;;5038749;28;20486;-72
2021/12/07 00:54:44;;;;;;;16.25;3.83;;;6.00;94.20;;;;;;5038640;28;20025;-72
2021/12/07 00:57:10;;;;;;;16.67;3.15;;;5.90;94.20;;;;;;5038419;28;20022;-72
2021/12/07 00:59:36;;;;;;;13.60;3.17;;;5.90;94.20;;;;;;5038823;28;20424;-72
2021/12/07 01:02:03;;;;;;;11.02;3.00;;;5.90;94.30;;;;;;5038549;28;20032;-72
2021/12/07 01:04:29;;;;;;;17.85;2.83;;;5.90;94.30;;;;;;5038800;28;20013;-72
2021/12/07 01:07:05;;;;;;;13.02;2.83;;;5.90;94.40;;;;;;5036940;28;20025;-72
2021/12/07 01:25:32;;;;;;;18.00;3.53;;;5.70;94.50;;;;;;5037971;28;20443;-72
2021/12/07 01:28:05;;;;;;;20.67;3.17;;;5.70;94.40;;;;;;5037857;28;20044;-73
2021/12/07 01:33:55;;;;;;;9.73;2.30;;;5.60;94.40;;;;;;5032664;28;20029;-72
2021/12/07 01:46:42;;;;;;;12.70;2.95;;;5.50;94.40;;;;;;5035233;28;20036;-73
2021/12/07 01:52:21;;;;;;;15.27;3.33;;;5.50;94.20;;;;;;5037153;28;20032;-73
2021/12/07 02:00:13;;;;;;;11.57;2.65;;;5.40;94.40;;;;;;5036782;28;20040;-73
2021/12/07 02:02:39;;;;;;;15.40;2.80;;;5.40;94.30;;;;;;5037182;28;20028;-73
2021/12/07 02:05:06;;;;;;;12.77;2.63;;;5.30;94.20;;;;;;5034876;28;20137;-73
2021/12/07 02:07:32;;;;;;;7.28;2.40;;;5.30;94.00;;;;;;5036856;28;20515;-73
2021/12/07 02:10:07;;;;;;;9.38;1.83;;;5.20;93.70;;;;;;5026176;28;20053;-73
2021/12/07 02:12:42;;;;;;;6.65;2.05;;;5.10;93.50;;;;;;5037126;28;20100;-73
2021/12/07 02:15:10;;;;;;;8.98;2.55;;;5.10;93.40;;;;;;5037216;28;20036;-73
2021/12/07 02:17:36;;;;;;;10.30;2.03;;;5.00;93.20;;;;;;5036028;28;20038;-73
2021/12/07 02:20:03;;;;;;;8.02;2.38;;;5.00;93.10;;;;;;5035342;28;20122;-73
2021/12/07 02:22:29;;;;;;;5.25;1.83;;;4.90;92.90;;;;;;5026558;28;20025;-73
2021/12/07 02:24:55;;;;;;;8.93;1.95;;;4.90;92.80;;;;;;5037120;28;20080;-73
2021/12/07 02:27:21;;;;;;;9.15;3.38;;;4.90;92.70;;;;;;5036637;28;20030;-73
2021/12/07 02:29:47;;;;;;;5.80;1.75;;;4.80;92.70;;;;;;5035575;28;20053;-73
2021/12/07 02:32:13;;;;;;;6.88;2.50;;;4.80;92.70;;;;;;5036752;28;20025;-73
2021/12/07 02:34:52;;;;;;;7.28;2.05;;;4.80;92.60;;;;;;5037278;28;20397;-73
2021/12/07 02:37:21;;;;;;;8.13;2.40;;;4.80;92.60;;;;;;5025356;28;20025;-73
2021/12/07 02:39:49;;;;;;;6.57;2.53;;;4.80;92.50;;;;;;5024446;28;20044;-73
2021/12/07 02:42:15;;;;;;;9.02;2.65;;;4.80;92.50;;;;;;5034066;28;20018;-73
2021/12/07 02:44:42;;;;;;;11.23;2.95;;;4.80;92.50;;;;;;5039160;28;20043;-73
2021/12/07 02:47:08;;;;;;;8.00;2.05;;;4.80;92.50;;;;;;5039860;28;20025;-73
2021/12/07 02:49:34;;;;;;;12.15;4.70;;;4.80;92.40;;;;;;5039333;28;20022;-73
2021/12/07 02:52:02;;;;;;;8.07;2.50;;;4.70;92.30;;;;;;5040839;28;20028;-73
2021/12/07 02:54:29;;;;;;;8.27;3.08;;;4.70;92.20;;;;;;5029827;28;20033;-73
2021/12/07 02:56:55;;;;;;;11.32;4.18;;;4.60;92.20;;;;;;5039633;28;20029;-73
2021/12/07 02:59:22;;;;;;;8.70;2.25;;;4.60;92.10;;;;;;5040700;28;20510;-73
2021/12/07 03:01:57;;;;;;;6.20;2.15;;;4.60;92.10;;;;;;5039628;28;20395;-73
2021/12/07 03:04:29;;;;;;;7.18;2.50;;;4.50;92.00;;;;;;5040598;28;20055;-73
2021/12/07 03:26:08;;;;;;;9.27;3.20;;;4.20;91.80;;;;;;5040435;28;20443;-73
2021/12/07 03:28:49;;;;;;;10.38;3.17;;;4.10;91.80;;;;;;5028868;28;20044;-73
2021/12/07 03:31:16;;;;;;;6.13;2.88;;;4.10;91.90;;;;;;5040257;28;20491;-73
2021/12/07 03:33:43;;;;;;;7.93;3.00;;;4.10;91.90;;;;;;5040313;28;20021;-73
2021/12/07 03:36:10;;;;;;;10.73;3.20;;;4.10;91.90;;;;;;5039974;28;20499;-73
2021/12/07 03:38:37;;;;;;;13.13;3.25;;;4.10;92.10;;;;;;5038096;28;20037;-73
2021/12/07 03:41:03;;;;;;;10.00;3.35;;;4.10;92.10;;;;;;5038761;28;20479;-73
2021/12/07 03:43:30;;;;;;;10.55;3.50;;;4.10;92.10;;;;;;5039140;28;20044;-73
2021/12/07 03:45:56;;;;;;;10.40;5.32;;;4.10;92.10;;;;;;5038544;28;20084;-73
2021/12/07 03:48:22;;;;;;;10.07;4.25;;;4.10;92.00;;;;;;5037585;28;20389;-73
2021/12/07 03:50:48;;;;;;;11.32;5.35;;;4.10;92.00;;;;;;5035997;28;20029;-73
2021/12/07 03:53:14;;;;;;;11.07;5.38;;;4.20;92.00;;;;;;5036214;28;20032;-73
2021/12/07 03:55:41;;;;;;;11.50;4.50;;;4.10;91.90;;;;;;5038548;28;20033;-73
2021/12/07 03:58:07;;;;;;;10.68;5.22;;;4.10;91.90;;;;;;5038081;28;20029;-73
2021/12/07 04:00:37;;;;;;;6.80;3.58;;;4.10;91.90;;;;;;5032477;28;20041;-73
2021/12/07 04:03:08;;;;;;;7.50;3.63;;;4.10;91.80;;;;;;5038467;28;20036;-73
2021/12/07 04:05:36;;;;;;;10.80;3.88;;;4.10;91.80;;;;;;5038127;28;20029;-73
2021/12/07 04:08:04;;;;;;;11.50;3.83;;;4.00;91.80;;;;;;5038054;28;20032;-73
2021/12/07 04:10:30;;;;;;;9.68;4.00;;;4.00;91.80;;;;;;5037293;28;20555;-73
2021/12/07 04:12:56;;;;;;;8.75;4.82;;;4.00;91.80;;;;;;5037600;28;20026;-73
2021/12/07 04:15:22;;;;;;;12.75;5.22;;;4.00;91.90;;;;;;5037930;28;20034;-73
2021/12/07 04:17:48;;;;;;;9.30;4.70;;;4.00;91.90;;;;;;5037725;28;20396;-73
2021/12/07 04:20:17;;;;;;;13.45;4.07;;;4.00;91.90;;;;;;5036965;28;20032;-73
2021/12/07 04:22:43;;;;;;;10.68;4.70;;;4.00;91.90;;;;;;5037388;28;20033;-73
2021/12/07 04:25:11;;;;;;;11.25;4.90;;;4.00;92.00;;;;;;5038119;28;20083;-72
2021/12/07 04:27:39;;;;;;;11.52;4.88;;;4.10;92.10;;;;;;5037772;28;20076;-73
2021/12/07 04:30:13;;;;;;;21.33;5.35;;;4.10;92.20;;;;;;5037577;28;20472;-73
2021/12/07 04:32:39;;;;;;;10.68;5.13;;;4.20;92.20;;;;;;5036136;28;20033;-73
2021/12/07 04:35:07;;;;;;;10.30;4.55;;;4.20;92.20;;;;;;5038283;28;20026;-73
2021/12/07 04:37:33;;;;;;;9.68;4.40;;;4.30;92.30;;;;;;4991822;28;1294498;-73
2021/12/07 04:39:58;;;;;;;9.77;3.80;;;4.30;92.30;;;;;;5038872;28;20029;-72
2021/12/07 04:42:26;;;;;;;12.57;3.90;;;4.40;92.40;;;;;;5036669;28;20025;-73
2021/12/07 04:44:55;;;;;;;11.77;3.92;;;4.40;92.70;;;;;;5038074;28;20034;-73
2021/12/07 04:47:35;;;;;;;15.60;3.95;;;4.40;92.90;;;;;;5038871;28;20014;-73
2021/12/07 04:50:28;;;;;;;23.10;6.55;;;4.50;93.20;;;;;;5036509;28;20631;-73
2021/12/07 04:58:20;;;;;;;12.13;4.38;;;4.60;94.00;;;;;;5037827;28;20112;-73
2021/12/07 05:00:46;;;;;;;24.13;5.20;;;4.60;94.10;;;;;;5038282;28;20052;-73
2021/12/07 05:03:14;;;;;;;13.48;4.03;;;4.60;94.30;;;;;;5038099;28;20124;-73
2021/12/07 05:05:46;;;;;;;13.15;3.83;;;4.70;94.40;;;;;;5038101;28;20018;-73
2021/12/07 05:08:15;;;;;;;15.07;4.40;;;4.70;94.60;;;;;;5037183;28;20029;-73
2021/12/07 05:13:30;;;;;;;10.13;4.07;;;4.80;94.90;;;;;;5038603;28;20040;-72
2021/12/07 05:16:06;;;;;;;18.00;5.28;;;4.80;95.00;;;;;;5038118;28;20032;-73
2021/12/07 05:18:42;;;;;;;17.90;4.30;;;4.90;95.00;;;;;;5037193;28;20017;-72
2021/12/07 05:37:38;;;;;;;15.20;4.65;;;4.90;95.30;;;;;;5038130;28;20083;-72
2021/12/07 05:40:20;;;;;;;14.93;3.90;;;5.00;95.30;;;;;;5037928;28;20079;-72
2021/12/07 05:42:47;;;;;;;12.73;3.10;;;5.00;95.30;;;;;;5035617;28;20014;-73
2021/12/07 05:45:19;;;;;;;13.95;3.47;;;5.10;95.30;;;;;;5037197;28;20033;-73
2021/12/07 05:47:45;;;;;;;18.00;3.70;;;5.10;95.20;;;;;;5035721;28;20021;-73
2021/12/07 05:50:15;;;;;;;14.25;3.80;;;5.10;95.10;;;;;;5032139;28;20044;-73
2021/12/07 05:52:41;;;;;;;10.98;3.72;;;5.10;95.00;;;;;;5036221;28;20030;-73
2021/12/07 05:55:07;;;;;;;13.00;3.75;;;5.10;95.00;;;;;;5037695;28;20387;-73
2021/12/07 05:57:34;;;;;;;14.05;4.25;;;5.10;95.00;;;;;;5037313;28;20442;-72
2021/12/07 05:59:59;;;;;;;19.38;4.07;;;5.10;95.00;;;;;;5037261;28;20041;-73
2021/12/07 06:02:25;;;;;;;12.82;4.00;;;5.10;95.00;;;;;;5036800;28;20037;-74
2021/12/07 06:04:51;;;;;;;14.38;3.60;;;5.10;95.00;;;;;;5029741;28;20030;-68
2021/12/07 06:07:17;;;;;;;13.93;3.90;;;5.20;95.10;;;;;;5036849;28;20493;-73
2021/12/07 06:09:43;;;;;;;13.20;3.55;;;5.20;95.20;;;;;;5036477;28;20391;-73
2021/12/07 06:12:08;;;;;;;9.27;3.03;;;5.20;95.20;;;;;;5036700;28;20026;-71
2021/12/07 06:14:42;;;;;;;9.40;2.80;;;5.30;95.20;;;;;;5035480;28;20017;-72
2021/12/07 06:17:07;;;;;;;11.57;3.13;;;5.30;95.20;;;;;;5036682;28;20029;-75
2021/12/07 06:19:33;;;;;;;13.43;3.38;;;5.30;95.10;;;;;;5036395;28;20063;-73
2021/12/07 06:21:59;;;;;;;15.30;4.13;;;5.40;95.50;;;;;;5034113;28;20098;-77
2021/12/07 06:24:25;;;;;;;15.13;3.83;;;5.40;95.40;;;;;;5034948;28;20029;-75
2021/12/07 06:26:51;;;;;;;26.20;5.07;;;5.50;95.50;;;;;;5037189;28;20472;-72
2021/12/07 06:29:17;;;;;;;19.05;5.18;;;5.50;95.60;;;;;;5036172;28;20508;-78
2021/12/07 06:31:43;;;;;;;10.25;3.45;;;5.50;95.50;;;;;;5035063;28;20029;-83
2021/12/07 06:34:12;;;;;;;11.45;3.08;;;5.60;95.50;;;;;;5035175;28;20396;-72
2021/12/07 06:36:39;;;;;;;12.43;3.10;;;5.60;95.40;;;;;;5037327;28;20025;-72
2021/12/07 06:39:08;;;;;;;12.30;3.95;;;5.60;95.40;;;;;;5036681;28;20131;-70
2021/12/07 06:41:34;;;;;;;14.45;5.40;;;5.60;95.30;;;;;;5036978;28;20028;-71
2021/12/07 06:44:01;;;;;;;18.15;4.07;;;5.60;95.30;;;;;;5035734;28;20404;-72
2021/12/07 06:46:27;;;;;;;12.57;3.45;;;5.70;95.30;;;;;;5036308;28;20036;-72
2021/12/07 06:48:52;;;;;;;12.35;3.60;;;5.70;95.20;;;;;;5037040;28;20033;-73
2021/12/07 06:51:18;;;;;;;14.85;4.25;;;5.70;95.50;;;;;;5036763;28;20018;-72
2021/12/07 06:53:44;;;;;;;11.85;3.15;;;5.70;95.20;;;;;;5035090;28;20044;-72
2021/12/07 06:56:11;;;;;;;13.65;4.15;;;5.70;95.10;;;;;;5035908;28;20021;-73
2021/12/07 06:58:37;;;;;;;12.68;3.80;;;5.70;95.00;;;;;;5035425;28;20048;-72
2021/12/07 07:01:06;;;;;;;11.15;3.47;;;5.80;95.00;;;;;;5036025;28;20068;-72
2021/12/07 07:03:33;;;;;;;19.27;4.35;;;5.80;95.00;;;;;;5032750;28;20045;-72
2021/12/07 07:06:00;;;;;;;16.60;4.10;;;5.80;95.00;;;;;;5030937;28;20021;-72
2021/12/07 07:08:25;;;;;;;14.60;4.20;;;5.80;95.00;;;;;;5035416;28;20060;-72
2021/12/07 07:10:51;;;;;;;13.30;4.30;;;5.80;95.00;;;;;;5035843;28;20014;-72
2021/12/07 07:13:17;;;;;;;19.80;4.05;;;5.80;95.00;;;;;;5036327;28;20048;-73
2021/12/07 07:15:43;;;;;;;15.88;5.28;;;5.80;95.10;;;;;;5034494;28;20041;-72
2021/12/07 07:18:09;;;;;;;18.33;4.13;;;5.90;95.10;;;;;;5035826;28;20029;-72
2021/12/07 07:20:36;;;;;;;19.00;4.40;;;5.90;95.20;;;;;;5034984;28;20056;-73
2021/12/07 07:23:02;;;;;;;16.40;3.60;;;5.90;95.30;;;;;;5023467;28;20164;-73
2021/12/07 07:25:28;;;;;;;16.30;4.65;;;5.90;95.40;;;;;;5036554;28;20178;-73
2021/12/07 07:27:54;;;;;;;15.60;3.95;;;6.00;95.60;;;;;;5036623;28;20046;-72
2021/12/07 07:30:20;;;;;;;22.38;4.88;;;6.10;96.00;;;;;;5038643;28;20068;-72
2021/12/07 07:32:47;;;;;;;14.80;4.05;;;6.20;96.30;;;;;;5040160;28;20108;-72
2021/12/07 07:35:14;;;;;;;20.73;4.90;;;6.20;96.50;;;;;;5040203;28;20431;-72
2021/12/07 07:37:41;;;;;;;22.65;10.43;;;6.30;96.70;;;;;;5039673;28;20037;-72
2021/12/07 07:40:10;;;;;;;17.95;5.45;;;6.40;96.80;;;;;;5040297;28;20087;-72
2021/12/07 07:42:36;;;;;;;21.48;4.30;;;6.40;96.90;;;;;;5040353;28;20033;-72
2021/12/07 07:45:04;;;;;;;18.67;4.57;;;6.50;97.00;;;;;;5039131;28;20395;-72
2021/12/07 07:47:30;;;;;;;15.93;3.67;;;6.50;97.10;;;;;;5039526;28;20078;-72
2021/12/07 07:49:56;;;;;;;21.15;5.50;;;6.60;97.10;;;;;;5039463;28;20024;-72
2021/12/07 07:52:22;;;;;;;23.13;4.60;;;6.70;97.30;;;;;;5039240;28;20014;-72
2021/12/07 07:54:48;;;;;;;26.23;4.85;;;6.70;97.40;;;;;;5039283;28;20014;-72
2021/12/07 07:57:15;;;;;;;25.40;5.65;;;6.80;97.40;;;;;;5039322;28;20029;-72
2021/12/07 07:59:41;;;;;;;25.90;4.93;;;6.80;97.50;;;;;;5039246;28;20056;-72
2021/12/07 08:02:07;;;;;;;19.17;5.60;;;6.90;97.70;;;;;;5038886;28;20017;-72
2021/12/07 08:04:33;;;;;;;21.67;4.43;;;6.90;97.70;;;;;;5038924;28;20037;-71
2021/12/07 08:06:59;;;;;;;24.23;5.07;;;6.90;97.80;;;;;;5039247;28;20013;-72
2021/12/07 08:09:25;;;;;;;18.98;4.93;;;7.00;97.80;;;;;;5030977;28;20025;-72
2021/12/07 08:11:52;;;;;;;24.08;6.40;;;7.00;97.90;;;;;;5035864;28;20022;-72
2021/12/07 08:14:18;;;;;;;22.48;4.88;;;7.10;97.90;;;;;;5035588;28;20021;-72
2021/12/07 08:16:45;;;;;;;26.35;4.70;;;7.10;97.90;;;;;;5038159;28;20399;-72
2021/12/07 08:19:11;;;;;;;25.63;5.28;;;7.20;98.00;;;;;;5034539;28;20029;-72
2021/12/07 08:21:37;;;;;;;23.20;5.28;;;7.30;98.10;;;;;;5039034;28;20021;-73
2021/12/07 08:24:04;;;;;;;19.65;4.85;;;7.30;98.10;;;;;;5038725;28;20052;-73
2021/12/07 08:26:31;;;;;;;23.63;4.50;;;7.30;98.00;;;;;;5034796;28;20472;-72
2021/12/07 08:28:58;;;;;;;21.50;4.82;;;7.40;98.00;;;;;;5039309;28;20021;-72
2021/12/07 08:31:26;;;;;;;25.88;5.32;;;7.50;98.10;;;;;;5039025;28;20078;-72
2021/12/07 08:33:52;;;;;;;32.55;6.85;;;7.50;98.00;;;;;;5037727;28;20017;-72
2021/12/07 08:36:18;;;;;;;25.00;5.38;;;7.50;98.00;;;;;;5038965;28;20075;-72
2021/12/07 08:38:44;;;;;;;26.73;5.78;;;7.60;98.00;;;;;;5038498;28;20142;-72
2021/12/07 08:41:11;;;;;;;24.85;5.38;;;7.60;98.00;;;;;;5037663;28;20021;-72
2021/12/07 08:43:40;;;;;;;29.05;6.75;;;7.60;97.90;;;;;;5032634;28;20420;-72
2021/12/07 08:46:07;;;;;;;21.92;5.35;;;7.70;98.00;;;;;;5038677;28;20042;-72
2021/12/07 08:48:36;;;;;;;18.45;4.82;;;7.70;98.00;;;;;;5038869;28;20393;-71
2021/12/07 08:51:05;;;;;;;46.17;9.27;;;7.80;98.00;;;;;;5038725;28;20025;-72
2021/12/07 08:53:32;;;;;;;21.67;5.28;;;7.80;97.90;;;;;;5038201;28;20469;-72
2021/12/07 09:01:29;;;;;;;24.80;5.68;;;8.00;98.10;;;;;;5038614;28;20037;-72
2021/12/07 09:03:57;;;;;;;24.20;6.05;;;8.10;98.20;;;;;;5038544;28;20025;-72
2021/12/07 09:06:24;;;;;;;25.02;5.60;;;8.00;98.10;;;;;;5044672;28;20040;-72
2021/12/07 09:08:50;;;;;;;31.45;7.32;;;8.10;98.10;;;;;;5037685;28;20469;-72
2021/12/07 09:11:16;;;;;;;25.67;6.45;;;8.10;98.00;;;;;;5038451;28;20164;-72
2021/12/07 09:13:43;;;;;;;19.17;5.40;;;8.20;98.10;;;;;;5038222;28;20032;-73
2021/12/07 09:16:14;;;;;;;33.92;6.43;;;8.20;98.10;;;;;;5038368;28;20025;-71
2021/12/07 09:18:41;;;;;;;30.55;7.07;;;8.20;98.00;;;;;;5027715;28;20053;-71
2021/12/07 09:21:08;;;;;;;31.45;6.95;;;8.30;98.10;;;;;;5038305;28;20036;-72
2021/12/07 09:23:34;;;;;;;25.73;7.55;;;8.30;98.10;;;;;;5037635;28;20057;-72
2021/12/07 09:26:01;;;;;;;26.52;6.55;;;8.40;98.10;;;;;;5038107;28;20054;-71
2021/12/07 09:28:27;;;;;;;29.15;7.50;;;8.40;98.10;;;;;;5038034;28;20028;-72
2021/12/07 09:30:54;;;;;;;29.60;7.45;;;8.40;98.10;;;;;;5037995;28;20013;-72
2021/12/07 09:33:22;;;;;;;22.20;6.95;;;8.50;98.10;;;;;;5037864;28;20030;-71
2021/12/07 09:35:49;;;;;;;28.98;7.55;;;8.50;98.10;;;;;;5036667;28;20026;-72
2021/12/07 09:38:15;;;;;;;25.85;6.40;;;8.50;98.10;;;;;;5037308;28;20057;-72
2021/12/07 09:40:42;;;;;;;36.72;8.75;;;8.60;98.20;;;;;;5037785;28;20028;-72
2021/12/07 09:43:09;;;;;;;32.10;8.80;;;8.60;98.20;;;;;;5036575;28;20025;-72
2021/12/07 09:45:36;;;;;;;32.13;7.43;;;8.70;98.20;;;;;;5037517;28;20028;-71
2021/12/07 09:48:04;;;;;;;33.22;10.40;;;8.70;98.20;;;;;;5037938;28;20033;-71
2021/12/07 09:50:33;;;;;;;33.15;9.25;;;8.80;98.30;;;;;;5037653;28;20020;-72
2021/12/07 09:52:59;;;;;;;36.15;7.45;;;8.80;98.20;;;;;;5036701;28;20030;-71
2021/12/07 09:55:28;;;;;;;39.75;9.65;;;8.80;98.30;;;;;;5037500;28;20017;-71
2021/12/07 09:57:54;;;;;;;30.50;9.02;;;8.90;98.40;;;;;;5036483;28;20447;-71
2021/12/07 10:00:22;;;;;;;52.17;10.27;;;8.90;98.40;;;;;;5037548;28;20026;-71
2021/12/07 10:02:50;;;;;;;22.13;6.82;;;9.00;98.40;;;;;;5037711;28;20030;-72
2021/12/07 10:05:19;;;;;;;32.97;9.20;;;9.00;98.30;;;;;;5041807;28;20020;-71
2021/12/07 10:07:46;;;;;;;28.77;7.68;;;9.00;98.50;;;;;;5041638;28;20080;-71
2021/12/07 10:10:46;;;;;;;37.85;7.90;;;9.00;98.50;;;;;;5037084;28;20075;-72
2021/12/07 10:13:13;;;;;;;29.35;7.38;;;9.10;98.70;;;;;;5003016;28;20042;-72
2021/12/07 10:15:40;;;;;;;23.33;5.40;;;9.10;98.80;;;;;;5035178;28;20056;-71
2021/12/07 10:18:09;;;;;;;21.13;5.43;;;9.20;98.80;;;;;;5022117;28;20052;-70
2021/12/07 10:20:39;;;;;;;34.35;7.50;;;9.20;99.00;;;;;;5037080;28;20096;-70
2021/12/07 10:23:21;;;;;;;27.33;6.07;;;9.30;99.30;;;;;;5036785;28;20481;-71
2021/12/07 10:26:02;;;;;;;24.97;5.30;;;9.30;99.20;;;;;;5028667;28;20366;-71
2021/12/07 10:28:31;;;;;;;36.08;4.80;;;9.30;99.30;;;;;;5037281;28;20024;-72
2021/12/07 10:31:02;;;;;;;26.60;4.78;;;9.40;99.30;;;;;;5037316;28;20057;-72
2021/12/07 10:33:41;;;;;;;28.77;5.43;;;9.40;99.30;;;;;;5037035;28;20075;-71
2021/12/07 10:36:16;;;;;;;31.38;5.53;;;9.50;99.40;;;;;;5037056;28;20065;-71
2021/12/07 10:38:48;;;;;;;30.00;5.18;;;9.60;99.50;;;;;;5036578;28;20053;-71
2021/12/07 10:41:18;;;;;;;33.13;5.30;;;9.60;99.50;;;;;;5037013;28;20029;-71
2021/12/07 10:43:58;;;;;;;25.83;5.90;;;9.60;99.50;;;;;;5035524;28;20024;-72
2021/12/07 10:46:39;;;;;;;30.42;6.38;;;9.70;99.50;;;;;;5036826;28;20029;-72
2021/12/07 10:49:13;;;;;;;23.20;4.72;;;9.70;99.40;;;;;;5036985;28;20028;-72
2021/12/07 10:51:40;;;;;;;27.63;5.75;;;9.80;99.60;;;;;;5037090;28;20025;-72
2021/12/07 10:54:07;;;;;;;28.20;5.18;;;9.70;99.40;;;;;;5036273;28;20021;-72
2021/12/07 10:56:38;;;;;;;30.77;5.03;;;9.80;99.70;;;;;;5037063;28;20105;-72
2021/12/07 10:59:07;;;;;;;31.77;5.68;;;9.80;99.40;;;;;;5036776;28;20385;-72
2021/12/07 11:01:46;;;;;;;28.92;5.93;;;9.80;99.30;;;;;;5037012;28;20032;-72
2021/12/07 11:04:25;;;;;;;22.75;6.30;;;9.80;99.30;;;;;;5037017;28;20092;-72
2021/12/07 11:07:12;;;;;;;30.10;6.30;;;9.80;99.30;;;;;;5042144;28;20026;-71
2021/12/07 11:09:47;;;;;;;24.65;5.10;;;9.80;99.30;;;;;;5040723;28;20022;-71
2021/12/07 11:12:16;;;;;;;32.58;5.63;;;9.80;99.20;;;;;;5040365;28;20533;-71
2021/12/07 11:14:54;;;;;;;21.63;6.05;;;9.80;99.20;;;;;;5040579;28;20511;-72
2021/12/07 11:17:25;;;;;;;25.85;7.00;;;9.90;99.20;;;;;;5031098;28;20026;-72
2021/12/07 11:19:52;;;;;;;23.20;7.20;;;9.90;99.20;;;;;;5036615;28;20028;-72
2021/12/07 11:22:21;;;;;;;26.83;5.00;;;9.90;99.20;;;;;;5030018;28;20033;-72
2021/12/07 11:24:48;;;;;;;26.92;5.05;;;9.90;99.20;;;;;;5040270;28;20428;-72
2021/12/07 11:30:20;;;;;;;23.42;6.15;;;9.90;99.20;;;;;;5040497;28;20025;-71
2021/12/07 11:32:55;;;;;;;26.48;4.30;;;9.90;99.20;;;;;;5040193;28;20021;-71
2021/12/07 11:35:26;;;;;;;22.25;4.20;;;9.90;99.20;;;;;;5031379;28;20025;-72
2021/12/07 11:37:57;;;;;;;26.25;4.80;;;9.90;99.30;;;;;;5039543;28;20045;-72
2021/12/07 11:40:37;;;;;;;23.40;5.13;;;9.90;99.40;;;;;;5040189;28;20017;-72
2021/12/07 11:43:14;;;;;;;23.17;4.57;;;10.00;99.30;;;;;;5039897;28;20094;-71
2021/12/07 11:45:43;;;;;;;23.92;4.35;;;10.00;99.40;;;;;;5039696;28;20453;-71
2021/12/07 11:48:09;;;;;;;16.75;4.50;;;9.90;99.40;;;;;;5039969;28;20025;-71
2021/12/07 11:50:42;;;;;;;17.92;3.53;;;10.00;99.60;;;;;;5039989;28;20481;-70
2021/12/07 11:53:12;;;;;;;25.25;4.45;;;10.00;99.70;;;;;;5030861;28;20022;-71
2021/12/07 11:55:42;;;;;;;20.88;7.40;;;10.00;99.70;;;;;;5039735;28;20025;-71
2021/12/07 11:58:09;;;;;;;18.15;6.30;;;9.90;99.70;;;;;;5040004;28;20033;-71
2021/12/07 12:00:40;;;;;;;23.48;7.03;;;10.00;99.80;;;;;;5039676;28;20032;-70
2021/12/07 12:03:11;;;;;;;17.10;4.75;;;10.00;99.90;;;;;;5039801;28;20025;-69
2021/12/07 12:05:38;;;;;;;17.63;4.10;;;10.00;99.90;;;;;;5043169;28;20396;-69
2021/12/07 12:08:08;;;;;;;30.05;5.50;;;10.00;99.90;;;;;;5042733;28;20365;-70
2021/12/07 12:10:40;;;;;;;16.55;4.78;;;10.00;99.90;;;;;;5039303;28;20028;-70
2021/12/07 12:13:31;;;;;;;23.73;6.28;;;10.00;99.90;;;;;;5039661;28;20025;-70
2021/12/07 12:16:03;;;;;;;21.55;5.82;;;10.00;99.90;;;;;;5025611;28;20094;-72
2021/12/07 12:18:49;;;;;;;19.77;4.97;;;10.00;99.90;;;;;;5027422;28;20560;-72
2021/12/07 12:21:30;;;;;;;20.63;5.18;;;10.00;99.90;;;;;;5039413;28;20443;-72
2021/12/07 12:24:16;;;;;;;16.42;4.97;;;10.10;99.90;;;;;;5029134;28;20040;-72
2021/12/07 12:26:45;;;;;;;14.40;5.22;;;10.10;99.90;;;;;;5039098;28;20030;-72
2021/12/07 12:29:16;;;;;;;12.85;4.63;;;10.10;99.90;;;;;;5039348;28;20022;-72
2021/12/07 12:31:46;;;;;;;10.47;4.30;;;10.10;99.90;;;;;;5039167;28;20072;-72
2021/12/07 12:34:21;;;;;;;12.07;4.00;;;10.10;99.90;;;;;;5039076;28;20451;-72
2021/12/07 12:37:05;;;;;;;9.75;4.25;;;10.20;99.90;;;;;;5039342;28;20473;-72
2021/12/07 12:39:49;;;;;;;15.15;5.28;;;10.10;99.90;;;;;;5038693;28;20080;-72
2021/12/07 12:42:39;;;;;;;12.25;5.15;;;10.20;99.90;;;;;;5038714;28;20026;-72
2021/12/07 12:45:17;;;;;;;20.83;4.40;;;10.20;99.90;;;;;;5025603;28;20033;-72
2021/12/07 12:47:43;;;;;;;10.45;4.68;;;10.20;99.90;;;;;;5035758;28;20033;-73
2021/12/07 12:50:16;;;;;;;8.77;4.25;;;10.20;99.90;;;;;;5038935;28;20038;-73
2021/12/07 12:52:49;;;;;;;8.90;4.03;;;10.20;99.90;;;;;;5038283;28;20502;-72
2021/12/07 12:55:50;;;;;;;10.90;4.00;;;10.20;99.90;;;;;;5038619;28;20064;-73
2021/12/07 12:58:27;;;;;;;8.18;4.20;;;10.30;99.90;;;;;;5011309;28;20022;-72
2021/12/07 13:00:58;;;;;;;10.45;4.07;;;10.30;99.90;;;;;;5027660;28;20511;-72
2021/12/07 13:03:25;;;;;;;13.85;4.65;;;10.30;99.90;;;;;;5038615;28;20096;-72
2021/12/07 13:06:01;;;;;;;10.10;3.85;;;10.30;99.90;;;;;;5041063;28;20026;-72
2021/12/07 13:08:27;;;;;;;8.55;3.47;;;10.30;99.90;;;;;;5036528;28;20029;-72
2021/12/07 13:11:04;;;;;;;8.65;3.70;;;10.30;99.90;;;;;;5038566;28;20025;-72
2021/12/07 13:13:34;;;;;;;9.65;4.35;;;10.30;99.90;;;;;;5038409;28;20026;-71
2021/12/07 13:16:13;;;;;;;10.57;4.13;;;10.40;99.90;;;;;;5033646;28;20045;-71
2021/12/07 13:18:43;;;;;;;9.57;3.30;;;10.40;99.90;;;;;;5036475;28;20025;-71
2021/12/07 13:21:24;;;;;;;8.40;3.53;;;10.40;99.90;;;;;;5038130;28;20072;-72
2021/12/07 13:24:07;;;;;;;7.82;3.50;;;10.40;99.90;;;;;;5037617;28;20022;-72
2021/12/07 13:26:38;;;;;;;8.05;3.67;;;10.40;99.90;;;;;;5037971;28;20477;-72
2021/12/07 13:29:05;;;;;;;9.18;4.07;;;10.40;99.90;;;;;;5038062;28;20028;-72
2021/12/07 13:32:01;;;;;;;9.80;3.75;;;10.40;99.90;;;;;;5037886;28;20057;-72
2021/12/07 13:34:30;;;;;;;19.25;7.28;;;10.50;99.90;;;;;;5034979;28;20083;-73
2021/12/07 13:37:07;;;;;;;9.80;4.78;;;10.50;99.90;;;;;;5037700;28;20392;-72
2021/12/07 13:39:52;;;;;;;8.43;4.78;;;10.50;99.90;;;;;;5037507;28;20450;-72
2021/12/07 13:42:18;;;;;;;7.45;4.10;;;10.50;99.90;;;;;;5035953;28;20043;-72
2021/12/07 13:44:56;;;;;;;10.23;5.05;;;10.50;99.90;;;;;;5037368;28;20399;-73
2021/12/07 13:47:25;;;;;;;8.60;5.20;;;10.50;99.90;;;;;;5037657;28;20587;-72
2021/12/07 13:50:00;;;;;;;9.15;4.50;;;10.50;99.90;;;;;;5037975;28;20016;-72
2021/12/07 13:52:32;;;;;;;6.80;4.13;;;10.50;99.90;;;;;;5033484;28;20432;-73
2021/12/07 13:55:00;;;;;;;10.35;5.45;;;10.60;99.90;;;;;;5036879;28;20018;-72
2021/12/07 13:57:32;;;;;;;10.93;5.30;;;10.50;99.90;;;;;;5037412;28;20040;-73
2021/12/07 14:00:26;;;;;;;8.35;3.95;;;10.50;99.90;;;;;;5037567;28;20067;-72
2021/12/07 14:02:55;;;;;;;7.60;3.95;;;10.50;99.90;;;;;;5029265;28;20037;-73
2021/12/07 14:05:32;;;;;;;8.23;4.05;;;10.50;99.90;;;;;;5040691;28;20049;-74
2021/12/07 14:08:02;;;;;;;6.03;4.38;;;10.60;99.90;;;;;;5040352;28;20021;-73
2021/12/07 14:10:30;;;;;;;7.78;5.00;;;10.60;99.90;;;;;;5037186;28;20021;-73
2021/12/07 14:12:59;;;;;;;15.82;5.88;;;10.60;99.90;;;;;;5037490;28;20017;-74
2021/12/07 14:15:39;;;;;;;16.83;8.07;;;10.60;99.90;;;;;;5037209;28;20018;-73
2021/12/07 14:18:08;;;;;;;19.67;7.72;;;10.60;99.90;;;;;;5022116;28;20033;-73
2021/12/07 14:20:49;;;;;;;22.55;8.38;;;10.70;99.90;;;;;;5037109;28;20022;-73
2021/12/07 14:23:21;;;;;;;23.98;9.18;;;10.70;99.90;;;;;;5036698;28;20097;-73
2021/12/07 14:25:49;;;;;;;11.57;6.03;;;10.80;99.90;;;;;;5036979;28;20029;-73
2021/12/07 14:28:25;;;;;;;26.67;9.23;;;10.80;99.90;;;;;;5037064;28;20029;-73
2021/12/07 14:30:51;;;;;;;15.63;6.38;;;10.80;99.90;;;;;;5037154;28;20017;-74